createdAt,value
2018-01-07T00:00:41.826Z,5.61
2018-01-07T00:01:42.052Z,5.65
2018-01-07T00:02:41.771Z,5.59
2018-01-07T00:03:42.015Z,5.59
2018-01-07T00:04:41.750Z,5.66
2018-01-07T00:05:41.783Z,5.62
2018-01-07T00:06:42.003Z,5.59
2018-01-07T00:07:42.009Z,5.65
2018-01-07T00:08:41.723Z,5.59
2018-01-07T00:09:41.724Z,5.57
2018-01-07T00:10:41.983Z,5.53
2018-01-07T00:11:41.708Z,5.64
2018-01-07T00:12:43.716Z,5.68
2018-01-07T00:13:41.944Z,5.64
2018-01-07T00:14:42.003Z,5.68
2018-01-07T00:15:41.422Z,5.64
2018-01-07T00:16:41.670Z,5.65
2018-01-07T00:17:41.922Z,5.71
2018-01-07T00:18:41.907Z,5.68
2018-01-07T00:19:41.921Z,5.75
2018-01-07T00:20:41.631Z,5.61
2018-01-07T00:21:41.883Z,5.66
2018-01-07T00:22:41.631Z,5.66
2018-01-07T00:23:41.618Z,5.65
2018-01-07T00:24:41.868Z,5.65
2018-01-07T00:25:41.865Z,5.62
2018-01-07T00:26:41.864Z,5.82
2018-01-07T00:27:41.569Z,5.69
2018-01-07T00:28:41.837Z,5.72
2018-01-07T00:29:41.587Z,5.69
2018-01-07T00:30:41.809Z,5.66
2018-01-07T00:31:41.564Z,5.62
2018-01-07T00:32:41.802Z,5.68
2018-01-07T00:33:41.311Z,5.62
2018-01-07T00:34:41.570Z,5.54
2018-01-07T00:35:41.556Z,5.54
2018-01-07T00:36:41.874Z,5.56
2018-01-07T00:37:41.818Z,5.48
2018-01-07T00:38:41.758Z,5.56
2018-01-07T00:39:41.747Z,5.5
2018-01-07T00:40:42.112Z,5.61
2018-01-07T00:41:41.487Z,5.44
2018-01-07T00:42:41.507Z,5.5
2018-01-07T00:43:41.779Z,5.51
2018-01-07T00:44:41.597Z,5.44
2018-01-07T00:45:41.698Z,5.47
2018-01-07T00:46:41.536Z,5.47
2018-01-07T00:47:41.956Z,5.36
2018-01-07T00:48:41.743Z,5.48
2018-01-07T00:49:41.705Z,5.53
2018-01-07T00:50:41.313Z,5.51
2018-01-07T00:51:41.781Z,5.46
2018-01-07T00:52:41.574Z,5.47
2018-01-07T00:53:41.286Z,5.38
2018-01-07T00:54:41.810Z,5.39
2018-01-07T00:55:41.211Z,5.38
2018-01-07T00:56:41.794Z,5.44
2018-01-07T00:57:41.922Z,5.39
2018-01-07T00:58:41.704Z,5.44
2018-01-07T00:59:41.384Z,5.29
2018-01-07T01:00:41.862Z,5.3
2018-01-07T01:01:41.745Z,5.33
2018-01-07T01:02:42.345Z,5.29
2018-01-07T01:03:41.150Z,5.33
2018-01-07T01:04:41.743Z,5.35
2018-01-07T01:05:41.632Z,5.3
2018-01-07T01:06:41.489Z,5.33
2018-01-07T01:07:41.364Z,5.26
2018-01-07T01:08:41.442Z,5.3
2018-01-07T01:09:41.145Z,5.28
2018-01-07T01:10:40.990Z,5.21
2018-01-07T01:11:41.373Z,5.28
2018-01-07T01:12:41.579Z,5.29
2018-01-07T01:13:41.450Z,5.25
2018-01-07T01:14:41.210Z,5.3
2018-01-07T01:15:41.466Z,5.25
2018-01-07T01:16:41.195Z,5.28
2018-01-07T01:17:41.181Z,5.3
2018-01-07T01:18:41.179Z,5.28
2018-01-07T01:19:41.169Z,5.26
2018-01-07T01:20:41.426Z,5.25
2018-01-07T01:21:41.408Z,5.25
2018-01-07T01:22:41.410Z,5.3
2018-01-07T01:23:41.416Z,5.21
2018-01-07T01:24:41.128Z,5.25
2018-01-07T01:25:41.398Z,5.26
2018-01-07T01:26:41.386Z,5.17
2018-01-07T01:27:41.363Z,5.21
2018-01-07T01:28:41.096Z,5.17
2018-01-07T01:29:41.351Z,5.14
2018-01-07T01:30:41.339Z,5.08
2018-01-07T01:31:41.345Z,5.17
2018-01-07T01:32:41.330Z,5.18
2018-01-07T01:33:41.315Z,5.17
2018-01-07T01:34:41.313Z,5.18
2018-01-07T01:35:41.309Z,5.14
2018-01-07T01:36:41.296Z,5.12
2018-01-07T01:37:41.054Z,5.11
2018-01-07T01:38:41.293Z,5.12
2018-01-07T01:39:41.025Z,5.14
2018-01-07T01:40:41.263Z,5.1
2018-01-07T01:41:41.257Z,5.11
2018-01-07T01:42:41.261Z,5.05
2018-01-07T01:43:40.995Z,5.05
2018-01-07T01:44:40.986Z,5.04
2018-01-07T01:45:40.996Z,5.07
2018-01-07T01:46:41.272Z,4.99
2018-01-07T01:47:41.299Z,4.99
2018-01-07T01:48:41.236Z,5.04
2018-01-07T01:49:40.945Z,5.08
2018-01-07T01:50:41.281Z,5.1
2018-01-07T01:51:40.973Z,5.08
2018-01-07T01:52:40.942Z,5.14
2018-01-07T01:53:40.939Z,5.08
2018-01-07T01:54:41.182Z,5.07
2018-01-07T01:55:41.181Z,5.07
2018-01-07T01:56:40.891Z,5.08
2018-01-07T01:57:41.266Z,5.02
2018-01-07T01:58:40.947Z,5.04
2018-01-07T01:59:41.131Z,5.08
2018-01-07T02:00:41.171Z,5.02
2018-01-07T02:01:41.149Z,5.05
2018-01-07T02:02:41.123Z,5.02
2018-01-07T02:03:40.588Z,5
2018-01-07T02:04:41.169Z,4.97
2018-01-07T02:05:40.832Z,5
2018-01-07T02:06:41.077Z,4.96
2018-01-07T02:07:40.883Z,4.97
2018-01-07T02:08:41.004Z,4.93
2018-01-07T02:09:40.607Z,4.96
2018-01-07T02:10:40.603Z,4.94
2018-01-07T02:11:40.891Z,4.89
2018-01-07T02:12:40.876Z,4.94
2018-01-07T02:13:40.953Z,4.99
2018-01-07T02:14:41.090Z,5.02
2018-01-07T02:15:41.192Z,4.99
2018-01-07T02:16:41.025Z,5.04
2018-01-07T02:17:40.992Z,5.02
2018-01-07T02:18:40.995Z,5.02
2018-01-07T02:19:40.776Z,5.02
2018-01-07T02:20:40.709Z,4.94
2018-01-07T02:21:40.966Z,5.02
2018-01-07T02:22:40.697Z,4.94
2018-01-07T02:23:40.943Z,4.87
2018-01-07T02:24:40.428Z,4.84
2018-01-07T02:25:40.936Z,4.89
2018-01-07T02:26:40.941Z,4.87
2018-01-07T02:27:40.954Z,4.8
2018-01-07T02:28:40.722Z,4.87
2018-01-07T02:29:40.665Z,4.9
2018-01-07T02:30:40.905Z,4.87
2018-01-07T02:31:40.884Z,4.77
2018-01-07T02:32:40.673Z,4.87
2018-01-07T02:33:40.869Z,4.77
2018-01-07T02:34:40.863Z,4.7
2018-01-07T02:35:40.845Z,4.78
2018-01-07T02:36:40.331Z,4.75
2018-01-07T02:37:40.835Z,4.78
2018-01-07T02:38:40.826Z,4.78
2018-01-07T02:39:40.565Z,4.73
2018-01-07T02:40:40.865Z,4.75
2018-01-07T02:41:40.838Z,4.78
2018-01-07T02:42:40.807Z,4.71
2018-01-07T02:43:40.791Z,4.75
2018-01-07T02:44:40.280Z,4.75
2018-01-07T02:45:40.764Z,4.78
2018-01-07T02:46:40.266Z,4.78
2018-01-07T02:47:40.504Z,4.78
2018-01-07T02:48:40.508Z,4.74
2018-01-07T02:49:40.748Z,4.77
2018-01-07T02:50:40.796Z,4.75
2018-01-07T02:51:40.725Z,4.84
2018-01-07T02:52:40.747Z,4.77
2018-01-07T02:53:40.711Z,4.78
2018-01-07T02:54:40.195Z,4.67
2018-01-07T02:55:40.448Z,4.7
2018-01-07T02:56:40.474Z,4.77
2018-01-07T02:57:40.170Z,4.75
2018-01-07T02:58:40.416Z,4.71
2018-01-07T02:59:40.679Z,4.73
2018-01-07T03:00:40.403Z,4.67
2018-01-07T03:01:40.390Z,4.66
2018-01-07T03:02:40.423Z,4.62
2018-01-07T03:03:40.668Z,4.62
2018-01-07T03:04:40.624Z,4.63
2018-01-07T03:05:40.658Z,4.55
2018-01-07T03:06:40.355Z,4.53
2018-01-07T03:07:40.626Z,4.59
2018-01-07T03:08:40.645Z,4.48
2018-01-07T03:09:40.582Z,4.55
2018-01-07T03:10:40.566Z,4.48
2018-01-07T03:11:40.589Z,4.52
2018-01-07T03:12:40.557Z,4.53
2018-01-07T03:13:40.545Z,4.58
2018-01-07T03:14:40.584Z,4.63
2018-01-07T03:15:40.552Z,4.62
2018-01-07T03:16:40.285Z,4.6
2018-01-07T03:17:40.307Z,4.8
2018-01-07T03:18:40.505Z,4.75
2018-01-07T03:19:40.551Z,4.84
2018-01-07T03:20:40.507Z,4.9
2018-01-07T03:21:40.507Z,4.8
2018-01-07T03:22:40.507Z,4.89
2018-01-07T03:23:40.249Z,4.82
2018-01-07T03:24:40.519Z,4.9
2018-01-07T03:25:40.202Z,4.89
2018-01-07T03:26:40.204Z,4.92
2018-01-07T03:27:40.448Z,4.93
2018-01-07T03:28:40.430Z,4.87
2018-01-07T03:29:40.424Z,4.92
2018-01-07T03:30:40.416Z,4.94
2018-01-07T03:31:40.412Z,4.87
2018-01-07T03:32:39.891Z,4.86
2018-01-07T03:33:39.879Z,4.96
2018-01-07T03:34:40.123Z,4.94
2018-01-07T03:35:40.371Z,4.97
2018-01-07T03:36:39.930Z,5.04
2018-01-07T03:37:40.383Z,5.05
2018-01-07T03:38:40.097Z,5.05
2018-01-07T03:39:40.084Z,5.05
2018-01-07T03:40:40.106Z,5.11
2018-01-07T03:41:40.329Z,5.05
2018-01-07T03:42:40.332Z,5.17
2018-01-07T03:43:41.424Z,5.15
2018-01-07T03:44:40.092Z,5.29
2018-01-07T03:45:40.302Z,5.32
2018-01-07T03:46:40.034Z,5.32
2018-01-07T03:47:39.776Z,5.29
2018-01-07T03:48:40.028Z,5.3
2018-01-07T03:49:40.301Z,5.25
2018-01-07T03:50:40.023Z,5.3
2018-01-07T03:51:40.040Z,5.3
2018-01-07T03:52:40.308Z,5.3
2018-01-07T03:53:39.996Z,5.3
2018-01-07T03:54:40.230Z,5.32
2018-01-07T03:55:39.968Z,5.29
2018-01-07T03:56:40.221Z,5.39
2018-01-07T03:57:39.950Z,5.41
2018-01-07T03:58:40.001Z,5.43
2018-01-07T03:59:39.949Z,5.39
2018-01-07T04:00:40.240Z,5.47
2018-01-07T04:01:40.193Z,5.44
2018-01-07T04:02:40.197Z,5.54
2018-01-07T04:03:40.197Z,5.57
2018-01-07T04:04:40.157Z,5.62
2018-01-07T04:05:39.939Z,5.46
2018-01-07T04:06:40.139Z,5.44
2018-01-07T04:07:39.926Z,5.46
2018-01-07T04:08:39.626Z,5.51
2018-01-07T04:09:40.131Z,5.51
2018-01-07T04:10:39.874Z,5.56
2018-01-07T04:11:40.123Z,5.54
2018-01-07T04:12:39.870Z,5.51
2018-01-07T04:13:43.052Z,5.57
2018-01-07T04:14:39.816Z,5.5
2018-01-07T04:15:39.586Z,5.61
2018-01-07T04:16:40.083Z,5.51
2018-01-07T04:17:39.832Z,5.56
2018-01-07T04:18:39.807Z,5.51
2018-01-07T04:19:39.539Z,5.54
2018-01-07T04:20:40.047Z,5.51
2018-01-07T04:21:40.066Z,5.48
2018-01-07T04:22:39.768Z,5.51
2018-01-07T04:23:39.766Z,5.53
2018-01-07T04:24:40.012Z,5.54
2018-01-07T04:25:39.989Z,5.47
2018-01-07T04:26:40.000Z,5.51
2018-01-07T04:27:39.757Z,5.51
2018-01-07T04:28:40.019Z,5.59
2018-01-07T04:29:40.006Z,5.54
2018-01-07T04:30:39.475Z,5.48
2018-01-07T04:31:39.737Z,5.35
2018-01-07T04:32:39.973Z,5.36
2018-01-07T04:33:39.949Z,5.36
2018-01-07T04:34:39.944Z,5.39
2018-01-07T04:35:39.674Z,5.33
2018-01-07T04:36:39.663Z,5.39
2018-01-07T04:37:39.918Z,5.29
2018-01-07T04:38:39.909Z,5.39
2018-01-07T04:39:39.890Z,5.41
2018-01-07T04:40:39.885Z,5.46
2018-01-07T04:41:39.888Z,5.43
2018-01-07T04:42:39.351Z,5.46
2018-01-07T04:43:39.598Z,5.46
2018-01-07T04:44:39.875Z,5.41
2018-01-07T04:45:39.584Z,5.43
2018-01-07T04:46:39.336Z,5.48
2018-01-07T04:47:39.831Z,5.44
2018-01-07T04:48:39.815Z,5.56
2018-01-07T04:49:39.807Z,5.44
2018-01-07T04:50:39.554Z,5.48
2018-01-07T04:51:39.814Z,5.47
2018-01-07T04:52:39.539Z,5.48
2018-01-07T04:53:39.786Z,5.35
2018-01-07T04:54:39.779Z,5.36
2018-01-07T04:55:39.513Z,5.38
2018-01-07T04:56:39.504Z,5.41
2018-01-07T04:57:39.504Z,5.46
2018-01-07T04:58:39.490Z,5.46
2018-01-07T04:59:39.735Z,5.43
2018-01-07T05:00:39.729Z,5.38
2018-01-07T05:01:39.468Z,5.38
2018-01-07T05:02:39.720Z,5.43
2018-01-07T05:03:39.704Z,5.47
2018-01-07T05:04:39.200Z,5.41
2018-01-07T05:05:39.449Z,5.41
2018-01-07T05:06:39.712Z,5.43
2018-01-07T05:07:39.438Z,5.47
2018-01-07T05:08:39.462Z,5.47
2018-01-07T05:09:39.702Z,5.47
2018-01-07T05:10:39.673Z,5.5
2018-01-07T05:11:39.426Z,5.51
2018-01-07T05:12:39.646Z,5.56
2018-01-07T05:13:39.631Z,5.5
2018-01-07T05:14:39.653Z,5.48
2018-01-07T05:15:39.619Z,5.5
2018-01-07T05:16:39.377Z,5.57
2018-01-07T05:17:39.698Z,5.53
2018-01-07T05:18:39.594Z,5.43
2018-01-07T05:19:39.347Z,5.48
2018-01-07T05:20:39.328Z,5.43
2018-01-07T05:21:39.348Z,5.46
2018-01-07T05:22:39.343Z,5.36
2018-01-07T05:23:39.336Z,5.44
2018-01-07T05:24:39.582Z,5.46
2018-01-07T05:25:39.291Z,5.48
2018-01-07T05:26:39.567Z,5.38
2018-01-07T05:27:39.282Z,5.38
2018-01-07T05:28:39.525Z,5.35
2018-01-07T05:29:39.545Z,5.36
2018-01-07T05:30:39.257Z,5.3
2018-01-07T05:31:39.503Z,5.26
2018-01-07T05:32:39.498Z,5.35
2018-01-07T05:33:39.491Z,5.28
2018-01-07T05:34:39.493Z,5.25
2018-01-07T05:35:39.501Z,5.26
2018-01-07T05:36:39.486Z,5.28
2018-01-07T05:37:39.226Z,5.32
2018-01-07T05:38:39.488Z,5.29
2018-01-07T05:39:39.443Z,5.3
2018-01-07T05:40:39.192Z,5.26
2018-01-07T05:41:39.435Z,5.28
2018-01-07T05:42:39.440Z,5.39
2018-01-07T05:43:39.181Z,5.38
2018-01-07T05:44:38.906Z,5.41
2018-01-07T05:45:39.181Z,5.43
2018-01-07T05:46:39.155Z,5.39
2018-01-07T05:47:39.427Z,5.33
2018-01-07T05:48:39.170Z,5.32
2018-01-07T05:49:38.922Z,5.3
2018-01-07T05:50:39.111Z,5.43
2018-01-07T05:51:39.365Z,5.33
2018-01-07T05:52:39.100Z,5.38
2018-01-07T05:53:39.337Z,5.44
2018-01-07T05:54:39.337Z,5.44
2018-01-07T05:55:39.335Z,5.41
2018-01-07T05:56:38.816Z,5.44
2018-01-07T05:57:39.320Z,5.36
2018-01-07T05:58:39.058Z,5.38
2018-01-07T05:59:38.799Z,5.36
2018-01-07T06:00:39.291Z,5.36
2018-01-07T06:01:39.295Z,5.36
2018-01-07T06:02:39.302Z,5.46
2018-01-07T06:03:39.026Z,5.38
2018-01-07T06:04:39.018Z,5.28
2018-01-07T06:05:39.008Z,5.3
2018-01-07T06:06:39.003Z,5.18
2018-01-07T06:07:38.735Z,5.11
2018-01-07T06:08:39.239Z,5.14
2018-01-07T06:09:38.990Z,5.08
2018-01-07T06:10:39.235Z,5.07
2018-01-07T06:11:38.970Z,5.1
2018-01-07T06:12:38.966Z,5.2
2018-01-07T06:13:39.221Z,5.17
2018-01-07T06:14:38.951Z,5.29
2018-01-07T06:15:38.956Z,5.21
2018-01-07T06:16:39.267Z,5.25
2018-01-07T06:17:38.952Z,5.2
2018-01-07T06:18:39.159Z,5.14
2018-01-07T06:19:39.161Z,5.17
2018-01-07T06:20:39.149Z,5.11
2018-01-07T06:21:39.156Z,5.14
2018-01-07T06:22:38.895Z,5.17
2018-01-07T06:23:38.634Z,5.08
2018-01-07T06:24:38.613Z,5.11
2018-01-07T06:25:38.859Z,5.15
2018-01-07T06:26:38.900Z,5.07
2018-01-07T06:27:38.840Z,5
2018-01-07T06:28:39.085Z,5.04
2018-01-07T06:29:38.848Z,4.99
2018-01-07T06:30:39.095Z,4.97
2018-01-07T06:31:38.817Z,4.96
2018-01-07T06:32:39.075Z,4.93
2018-01-07T06:33:39.051Z,4.96
2018-01-07T06:34:39.049Z,4.96
2018-01-07T06:35:39.033Z,4.94
2018-01-07T06:36:39.084Z,4.89
2018-01-07T06:37:39.023Z,4.84
2018-01-07T06:38:39.009Z,4.89
2018-01-07T06:39:38.790Z,4.89
2018-01-07T06:40:39.021Z,4.94
2018-01-07T06:41:38.992Z,4.89
2018-01-07T06:42:38.980Z,4.92
2018-01-07T06:43:38.463Z,4.99
2018-01-07T06:44:39.009Z,5
2018-01-07T06:45:38.729Z,4.97
2018-01-07T06:46:38.975Z,4.97
2018-01-07T06:47:38.944Z,5
2018-01-07T06:48:38.933Z,4.97
2018-01-07T06:49:38.707Z,4.94
2018-01-07T06:50:38.952Z,5.04
2018-01-07T06:51:38.654Z,5.04
2018-01-07T06:52:38.641Z,5.05
2018-01-07T06:53:38.648Z,5.04
2018-01-07T06:54:38.928Z,4.99
2018-01-07T06:55:38.894Z,5
2018-01-07T06:56:38.615Z,5.04
2018-01-07T06:57:38.348Z,5.04
2018-01-07T06:58:38.595Z,5.04
2018-01-07T06:59:38.587Z,4.99
2018-01-07T07:00:38.605Z,4.9
2018-01-07T07:01:38.835Z,4.97
2018-01-07T07:02:38.569Z,4.96
2018-01-07T07:03:38.832Z,4.89
2018-01-07T07:04:38.807Z,4.86
2018-01-07T07:05:38.539Z,4.9
2018-01-07T07:06:38.787Z,4.86
2018-01-07T07:07:38.564Z,4.93
2018-01-07T07:08:38.835Z,4.99
2018-01-07T07:09:38.773Z,4.96
2018-01-07T07:10:38.754Z,4.96
2018-01-07T07:11:38.491Z,4.94
2018-01-07T07:12:38.486Z,5.07
2018-01-07T07:13:38.740Z,5.04
2018-01-07T07:14:38.492Z,5.08
2018-01-07T07:15:40.059Z,5.11
2018-01-07T07:16:38.470Z,5.23
2018-01-07T07:17:38.706Z,5.14
2018-01-07T07:18:38.692Z,5.15
2018-01-07T07:19:38.686Z,5.11
2018-01-07T07:20:38.685Z,5.17
2018-01-07T07:21:38.436Z,5.12
2018-01-07T07:22:38.687Z,5.2
2018-01-07T07:23:38.661Z,5.21
2018-01-07T07:24:38.387Z,5.23
2018-01-07T07:25:38.381Z,5.28
2018-01-07T07:26:38.632Z,5.3
2018-01-07T07:27:38.655Z,5.3
2018-01-07T07:28:38.388Z,5.32
2018-01-07T07:29:38.618Z,5.36
2018-01-07T07:30:38.606Z,5.38
2018-01-07T07:31:38.592Z,5.33
2018-01-07T07:32:38.579Z,5.32
2018-01-07T07:33:38.580Z,5.39
2018-01-07T07:34:38.320Z,5.44
2018-01-07T07:35:38.073Z,5.38
2018-01-07T07:36:38.301Z,5.33
2018-01-07T07:37:38.555Z,5.35
2018-01-07T07:38:38.536Z,5.33
2018-01-07T07:39:38.277Z,5.41
2018-01-07T07:40:38.271Z,5.41
2018-01-07T07:41:38.260Z,5.41
2018-01-07T07:42:38.289Z,5.38
2018-01-07T07:43:38.313Z,5.39
2018-01-07T07:44:38.488Z,5.32
2018-01-07T07:45:38.528Z,5.41
2018-01-07T07:46:38.489Z,5.3
2018-01-07T07:47:38.475Z,5.32
2018-01-07T07:48:38.213Z,5.38
2018-01-07T07:49:38.202Z,5.35
2018-01-07T07:50:38.488Z,5.36
2018-01-07T07:51:38.454Z,5.38
2018-01-07T07:52:38.239Z,5.29
2018-01-07T07:53:38.218Z,5.28
2018-01-07T07:54:38.208Z,5.39
2018-01-07T07:55:38.159Z,5.35
2018-01-07T07:56:38.155Z,5.35
2018-01-07T07:57:38.407Z,5.36
2018-01-07T07:58:38.148Z,5.38
2018-01-07T07:59:38.134Z,5.36
2018-01-07T08:00:38.127Z,5.36
2018-01-07T08:01:38.401Z,5.36
2018-01-07T08:02:38.111Z,5.43
2018-01-07T08:03:38.415Z,5.41
2018-01-07T08:04:38.355Z,5.48
2018-01-07T08:05:38.353Z,5.48
2018-01-07T08:06:38.339Z,5.47
2018-01-07T08:07:38.326Z,5.51
2018-01-07T08:08:38.066Z,5.47
2018-01-07T08:09:38.312Z,5.51
2018-01-07T08:10:38.059Z,5.46
2018-01-07T08:11:38.048Z,5.47
2018-01-07T08:12:38.293Z,5.5
2018-01-07T08:13:38.059Z,5.53
2018-01-07T08:14:38.030Z,5.51
2018-01-07T08:15:38.026Z,5.57
2018-01-07T08:16:38.274Z,5.53
2018-01-07T08:17:38.069Z,5.62
2018-01-07T08:18:38.043Z,5.54
2018-01-07T08:19:37.748Z,5.54
2018-01-07T08:20:37.747Z,5.61
2018-01-07T08:21:37.985Z,5.47
2018-01-07T08:22:37.986Z,5.53
2018-01-07T08:23:38.208Z,5.46
2018-01-07T08:24:38.202Z,5.54
2018-01-07T08:25:38.196Z,5.62
2018-01-07T08:26:38.186Z,5.66
2018-01-07T08:27:38.188Z,5.66
2018-01-07T08:28:37.922Z,5.69
2018-01-07T08:29:38.180Z,5.73
2018-01-07T08:30:38.158Z,5.76
2018-01-07T08:31:37.910Z,5.72
2018-01-07T08:32:38.151Z,5.72
2018-01-07T08:33:37.662Z,5.73
2018-01-07T08:34:37.876Z,5.71
2018-01-07T08:35:37.651Z,5.69
2018-01-07T08:36:38.185Z,5.75
2018-01-07T08:37:37.863Z,5.66
2018-01-07T08:38:37.886Z,5.69
2018-01-07T08:39:38.100Z,5.69
2018-01-07T08:40:37.609Z,5.65
2018-01-07T08:41:37.843Z,5.62
2018-01-07T08:42:38.078Z,5.64
2018-01-07T08:43:38.075Z,5.61
2018-01-07T08:44:38.076Z,5.66
2018-01-07T08:45:37.805Z,5.66
2018-01-07T08:46:38.060Z,5.69
2018-01-07T08:47:38.039Z,5.69
2018-01-07T08:48:38.051Z,5.79
2018-01-07T08:49:38.037Z,5.84
2018-01-07T08:50:38.084Z,5.8
2018-01-07T08:51:37.776Z,5.86
2018-01-07T08:52:37.765Z,5.8
2018-01-07T08:53:38.022Z,5.89
2018-01-07T08:54:37.762Z,5.82
2018-01-07T08:55:37.997Z,5.89
2018-01-07T08:56:37.995Z,5.83
2018-01-07T08:57:37.981Z,5.84
2018-01-07T08:58:37.981Z,5.91
2018-01-07T08:59:37.462Z,5.93
2018-01-07T09:00:37.728Z,5.89
2018-01-07T09:01:37.698Z,5.98
2018-01-07T09:02:37.950Z,5.98
2018-01-07T09:03:37.737Z,5.97
2018-01-07T09:04:37.702Z,5.93
2018-01-07T09:05:37.930Z,5.99
2018-01-07T09:06:37.671Z,5.98
2018-01-07T09:07:38.004Z,6.05
2018-01-07T09:08:37.642Z,6.02
2018-01-07T09:09:37.898Z,5.91
2018-01-07T09:10:37.897Z,5.99
2018-01-07T09:11:37.878Z,6.14
2018-01-07T09:12:37.893Z,6.05
2018-01-07T09:13:37.875Z,6.07
2018-01-07T09:14:37.343Z,6.09
2018-01-07T09:15:37.945Z,6.16
2018-01-07T09:16:37.590Z,6.16
2018-01-07T09:17:37.840Z,6.24
2018-01-07T09:18:37.567Z,6.2
2018-01-07T09:19:37.558Z,6.26
2018-01-07T09:20:37.835Z,6.3
2018-01-07T09:21:37.610Z,6.36
2018-01-07T09:22:37.560Z,6.36
2018-01-07T09:23:37.591Z,6.39
2018-01-07T09:24:37.537Z,6.41
2018-01-07T09:25:37.786Z,6.46
2018-01-07T09:26:37.795Z,6.45
2018-01-07T09:27:37.792Z,6.46
2018-01-07T09:28:37.783Z,6.35
2018-01-07T09:29:37.497Z,6.44
2018-01-07T09:30:37.745Z,6.44
2018-01-07T09:31:37.744Z,6.39
2018-01-07T09:32:37.759Z,6.45
2018-01-07T09:33:37.493Z,6.46
2018-01-07T09:34:37.567Z,6.54
2018-01-07T09:35:37.736Z,6.46
2018-01-07T09:36:37.714Z,6.56
2018-01-07T09:37:37.459Z,6.6
2018-01-07T09:38:37.441Z,6.63
2018-01-07T09:39:37.430Z,6.6
2018-01-07T09:40:37.423Z,6.57
2018-01-07T09:41:37.417Z,6.66
2018-01-07T09:42:37.413Z,6.66
2018-01-07T09:43:37.687Z,6.75
2018-01-07T09:44:37.653Z,6.72
2018-01-07T09:45:37.148Z,6.74
2018-01-07T09:46:37.850Z,6.77
2018-01-07T09:47:37.633Z,6.72
2018-01-07T09:48:37.633Z,6.78
2018-01-07T09:49:37.629Z,6.89
2018-01-07T09:50:37.609Z,6.93
2018-01-07T09:51:37.636Z,6.97
2018-01-07T09:52:37.595Z,6.99
2018-01-07T09:53:37.598Z,7.03
2018-01-07T09:54:37.593Z,7.03
2018-01-07T09:55:37.589Z,7
2018-01-07T09:56:37.583Z,6.99
2018-01-07T09:57:37.320Z,7.06
2018-01-07T09:58:37.318Z,7.07
2018-01-07T09:59:37.579Z,7.17
2018-01-07T10:00:37.576Z,7.18
2018-01-07T10:01:37.302Z,7.17
2018-01-07T10:02:37.296Z,7.18
2018-01-07T10:03:37.298Z,7.15
2018-01-07T10:04:37.532Z,7.29
2018-01-07T10:05:37.528Z,7.23
2018-01-07T10:06:37.525Z,7.35
2018-01-07T10:07:37.270Z,7.32
2018-01-07T10:08:37.507Z,7.35
2018-01-07T10:09:37.269Z,7.25
2018-01-07T10:10:37.511Z,7.31
2018-01-07T10:11:37.243Z,7.38
2018-01-07T10:12:36.982Z,7.32
2018-01-07T10:13:37.481Z,7.33
2018-01-07T10:14:37.471Z,7.35
2018-01-07T10:15:37.229Z,7.39
2018-01-07T10:16:37.470Z,7.4
2018-01-07T10:17:37.209Z,7.43
2018-01-07T10:18:37.452Z,7.45
2018-01-07T10:19:37.219Z,7.5
2018-01-07T10:20:37.196Z,7.56
2018-01-07T10:21:37.434Z,7.56
2018-01-07T10:52:40.646Z,7.73
2018-01-07T10:53:40.639Z,7.83
2018-01-07T10:54:40.430Z,7.76
2018-01-07T10:55:40.356Z,7.76
2018-01-07T10:56:40.627Z,7.79
2018-01-07T10:57:40.344Z,7.76
2018-01-07T10:58:40.593Z,7.72
2018-01-07T10:59:40.571Z,7.73
2018-01-07T11:00:40.570Z,7.72
2018-01-07T11:01:40.554Z,7.73
2018-01-07T11:02:40.547Z,7.61
2018-01-07T11:03:40.409Z,7.72
2018-01-07T11:04:40.532Z,7.7
2018-01-07T11:05:40.272Z,7.82
2018-01-07T11:06:40.265Z,7.75
2018-01-07T11:07:40.263Z,7.76
2018-01-07T11:08:40.261Z,7.73
2018-01-07T11:09:40.495Z,7.8
2018-01-07T11:10:40.490Z,7.82
2018-01-07T11:11:40.232Z,7.76
2018-01-07T11:12:40.232Z,7.83
2018-01-07T11:13:40.477Z,7.82
2018-01-07T11:14:40.204Z,7.82
2018-01-07T11:15:40.469Z,7.85
2018-01-07T11:16:40.453Z,7.94
2018-01-07T11:17:40.454Z,7.88
2018-01-07T11:18:40.450Z,7.94
2018-01-07T11:19:40.455Z,7.94
2018-01-07T11:20:40.181Z,7.94
2018-01-07T11:21:40.242Z,8
2018-01-07T11:22:40.596Z,7.98
2018-01-07T11:23:39.923Z,8.01
2018-01-07T11:24:40.416Z,8
2018-01-07T11:25:40.394Z,8.08
2018-01-07T11:26:40.395Z,8.1
2018-01-07T11:27:40.401Z,8.05
2018-01-07T11:28:40.395Z,8.06
2018-01-07T11:29:40.402Z,8.19
2018-01-07T11:30:39.879Z,8.15
2018-01-07T11:31:40.388Z,8.09
2018-01-07T11:32:40.368Z,8.12
2018-01-07T11:33:40.126Z,8.2
2018-01-07T11:34:40.396Z,8.2
2018-01-07T11:35:40.112Z,8.16
2018-01-07T11:36:40.376Z,8.19
2018-01-07T11:37:40.388Z,8.18
2018-01-07T11:38:40.101Z,8.26
2018-01-07T11:39:40.343Z,8.3
2018-01-07T11:40:40.080Z,8.26
2018-01-07T11:41:39.852Z,8.33
2018-01-07T11:42:40.339Z,8.34
2018-01-07T11:43:40.314Z,8.31
2018-01-07T11:44:40.212Z,8.34
2018-01-07T11:45:40.520Z,8.28
2018-01-07T11:46:40.327Z,8.42
2018-01-07T11:47:40.037Z,8.44
2018-01-07T11:48:40.293Z,8.44
2018-01-07T11:49:40.060Z,8.44
2018-01-07T11:50:40.032Z,8.41
2018-01-07T11:51:40.073Z,8.41
2018-01-07T11:52:41.911Z,8.51
2018-01-07T11:53:40.268Z,8.48
2018-01-07T11:54:40.038Z,8.46
2018-01-07T11:55:40.283Z,8.44
2018-01-07T11:56:39.989Z,8.42
2018-01-07T11:57:40.258Z,8.45
2018-01-07T11:58:40.016Z,8.42
2018-01-07T11:59:40.000Z,8.41
2018-01-07T12:00:40.004Z,8.36
2018-01-07T12:01:39.708Z,8.38
2018-01-07T12:02:39.979Z,8.44
2018-01-07T12:03:39.711Z,8.37
2018-01-07T12:04:39.981Z,8.41
2018-01-07T12:05:39.949Z,8.41
2018-01-07T12:06:39.971Z,8.45
2018-01-07T12:07:40.191Z,8.45
2018-01-07T12:08:40.188Z,8.45
2018-01-07T12:09:39.959Z,8.51
2018-01-07T12:10:40.060Z,8.53
2018-01-07T12:11:40.157Z,8.55
2018-01-07T12:12:40.171Z,8.48
2018-01-07T12:13:39.922Z,8.46
2018-01-07T12:14:39.894Z,8.44
2018-01-07T12:15:39.950Z,8.52
2018-01-07T12:16:39.922Z,8.52
2018-01-07T12:17:40.158Z,8.46
2018-01-07T12:18:39.913Z,8.51
2018-01-07T12:19:39.900Z,8.56
2018-01-07T12:20:40.061Z,8.58
2018-01-07T12:21:40.109Z,8.61
2018-01-07T12:22:39.878Z,8.58
2018-01-07T12:23:39.856Z,8.55
2018-01-07T12:24:40.146Z,8.52
2018-01-07T12:25:39.875Z,8.56
2018-01-07T12:26:39.879Z,8.55
2018-01-07T12:27:39.868Z,8.53
2018-01-07T12:28:39.579Z,8.53
2018-01-07T12:29:39.859Z,8.37
2018-01-07T12:30:40.088Z,8.38
2018-01-07T12:31:39.823Z,8.41
2018-01-07T12:32:39.814Z,8.38
2018-01-07T12:33:39.795Z,8.41
2018-01-07T12:34:39.549Z,8.51
2018-01-07T12:35:40.062Z,8.45
2018-01-07T12:36:39.530Z,8.51
2018-01-07T12:37:40.052Z,8.52
2018-01-07T12:38:39.814Z,8.51
2018-01-07T12:39:39.786Z,8.52
2018-01-07T12:40:40.078Z,8.58
2018-01-07T12:41:40.141Z,8.55
2018-01-07T12:42:40.090Z,8.51
2018-01-07T12:43:39.759Z,8.51
2018-01-07T12:44:39.806Z,8.56
2018-01-07T12:45:39.762Z,8.64
2018-01-07T12:46:39.983Z,8.6
2018-01-07T12:47:40.809Z,8.6
2018-01-07T12:48:39.739Z,8.6
2018-01-07T12:49:39.751Z,8.53
2018-01-07T12:50:39.740Z,8.58
2018-01-07T12:51:40.027Z,8.45
2018-01-07T12:52:39.952Z,8.61
2018-01-07T12:53:40.454Z,8.56
2018-01-07T12:54:39.782Z,8.48
2018-01-07T12:55:39.795Z,8.63
2018-01-07T12:56:40.102Z,8.51
2018-01-07T12:57:39.784Z,8.58
2018-01-07T12:58:39.756Z,8.52
2018-01-07T12:59:39.704Z,8.56
2018-01-07T13:00:39.679Z,8.56
2018-01-07T13:01:39.926Z,8.6
2018-01-07T13:02:39.905Z,8.63
2018-01-07T13:03:39.664Z,8.58
2018-01-07T13:04:39.891Z,8.55
2018-01-07T13:05:39.669Z,8.58
2018-01-07T13:06:39.643Z,8.55
2018-01-07T13:07:39.656Z,8.53
2018-01-07T13:08:39.909Z,8.6
2018-01-07T13:09:39.641Z,8.56
2018-01-07T13:10:39.703Z,8.63
2018-01-07T13:11:39.631Z,8.64
2018-01-07T13:12:39.669Z,8.67
2018-01-07T13:13:39.702Z,8.71
2018-01-07T13:14:39.995Z,8.67
2018-01-07T13:15:39.599Z,8.69
2018-01-07T13:16:39.604Z,8.74
2018-01-07T13:17:41.197Z,8.7
2018-01-07T13:18:39.582Z,8.81
2018-01-07T13:19:39.581Z,8.81
2018-01-07T13:20:39.594Z,8.73
2018-01-07T13:21:39.827Z,8.73
2018-01-07T13:22:39.800Z,8.73
2018-01-07T13:23:39.820Z,8.82
2018-01-07T13:24:39.538Z,8.79
2018-01-07T13:25:39.280Z,8.79
2018-01-07T13:26:39.537Z,8.84
2018-01-07T13:27:39.799Z,8.88
2018-01-07T13:28:39.771Z,8.92
2018-01-07T13:29:39.766Z,8.91
2018-01-07T13:30:39.795Z,8.85
2018-01-07T13:31:39.820Z,8.87
2018-01-07T13:32:39.789Z,8.84
2018-01-07T13:33:39.779Z,8.87
2018-01-07T13:34:39.750Z,8.82
2018-01-07T13:35:39.524Z,8.88
2018-01-07T13:36:39.749Z,8.92
2018-01-07T13:37:39.765Z,8.88
2018-01-07T13:38:39.786Z,8.87
2018-01-07T13:39:39.484Z,8.89
2018-01-07T13:40:39.493Z,8.87
2018-01-07T13:41:39.231Z,8.95
2018-01-07T13:42:39.649Z,8.92
2018-01-07T13:43:39.702Z,9.04
2018-01-07T13:44:39.704Z,8.99
2018-01-07T13:45:39.698Z,8.99
2018-01-07T13:46:39.701Z,9.03
2018-01-07T13:47:39.440Z,9.02
2018-01-07T13:48:39.440Z,9
2018-01-07T13:49:39.666Z,9
2018-01-07T13:50:39.417Z,8.92
2018-01-07T13:51:39.672Z,9.03